Time;durP1;ratioP1;P1;durP2;ratioP2;P2;SDS_P1;SDS_P2;PMS_P1;PMS_P2;Temp;Humidity;BMP_temperature;BMP_pressure;BME280_temperature;BME280_humidity;BME280_pressure;Samples;Min_cycle;Max_cycle;Signal;HPM_P1;HPM_P2
2022/10/30 00:01:02;;;;;;;16.30;10.60;;;;;;;10.07;100.00;99925.73;100738;1339;23198;-33
2022/10/30 00:03:28;;;;;;;25.10;13.00;;;;;;;10.03;100.00;99921.02;100742;1339;24849;-34
2022/10/30 00:05:54;;;;;;;15.10;10.50;;;;;;;9.97;100.00;99930.06;100686;1339;23654;-37
2022/10/30 00:08:21;;;;;;;17.70;11.60;;;;;;;9.94;100.00;99927.48;100737;1331;23087;-37
2022/10/30 00:10:49;;;;;;;23.60;14.30;;;;;;;9.89;100.00;99926.56;100825;1332;24372;-37
2022/10/30 00:13:14;;;;;;;22.40;14.40;;;;;;;9.87;100.00;99932.25;100629;1339;22581;-37
2022/10/30 00:15:46;;;;;;;15.80;9.20;;;;;;;9.86;100.00;99940.59;100799;1334;24392;-34
2022/10/30 00:18:11;;;;;;;10.80;5.20;;;;;;;9.87;100.00;99933.06;100741;1331;24378;-34
2022/10/30 00:20:36;;;;;;;16.90;11.40;;;;;;;9.88;100.00;99937.94;100744;1339;22712;-38
2022/10/30 00:23:02;;;;;;;37.20;20.00;;;;;;;9.87;100.00;99940.80;100835;1339;23110;-39
2022/10/30 00:25:27;;;;;;;21.90;12.90;;;;;;;9.83;100.00;99943.61;100628;1339;23362;-34
2022/10/30 00:27:53;;;;;;;21.60;14.00;;;;;;;9.78;100.00;99945.15;100750;1339;23083;-37
2022/10/30 00:30:19;;;;;;;25.20;16.70;;;;;;;9.74;100.00;99943.34;100678;1340;22884;-38
2022/10/30 00:32:44;;;;;;;26.60;15.50;;;;;;;9.72;100.00;99936.38;100798;1331;23020;-35
2022/10/30 00:35:10;;;;;;;26.00;15.00;;;;;;;9.71;100.00;99936.48;100728;1332;22880;-37
2022/10/30 00:37:35;;;;;;;23.40;14.00;;;;;;;9.70;100.00;99934.27;100774;1339;23231;-37
2022/10/30 00:40:02;;;;;;;22.40;13.70;;;;;;;9.70;100.00;99935.55;100839;1339;22890;-37
2022/10/30 00:42:29;;;;;;;29.70;14.70;;;;;;;9.70;100.00;99944.20;100739;1339;22512;-37
2022/10/30 00:44:54;;;;;;;29.60;14.90;;;;;;;9.66;100.00;99940.30;100706;1339;24377;-37
2022/10/30 00:47:25;;;;;;;22.10;12.10;;;;;;;9.63;100.00;99935.00;100727;1334;23037;-35
2022/10/30 00:49:57;;;;;;;16.70;10.10;;;;;;;9.59;100.00;99931.50;100761;1339;23216;-34
2022/10/30 00:52:24;;;;;;;44.80;14.90;;;;;;;9.55;100.00;99929.75;100816;1331;22572;-34
2022/10/30 00:54:50;;;;;;;21.60;13.90;;;;;;;9.55;100.00;99930.55;100824;1339;22755;-37
2022/10/30 00:57:16;;;;;;;24.80;14.80;;;;;;;9.57;100.00;99932.62;100808;1339;24829;-35
2022/10/30 00:59:41;;;;;;;23.00;14.70;;;;;;;9.56;100.00;99933.59;100817;1331;23099;-36
2022/10/30 01:02:07;;;;;;;20.10;12.00;;;;;;;9.54;100.00;99942.98;100662;1334;22872;-36
2022/10/30 01:04:33;;;;;;;15.90;10.80;;;;;;;9.52;100.00;99943.94;100729;1331;23098;-34
2022/10/30 01:06:59;;;;;;;19.70;9.50;;;;;;;9.49;100.00;99934.25;100689;1339;23227;-33
2022/10/30 01:09:24;;;;;;;14.20;7.40;;;;;;;9.47;100.00;99934.48;100636;1340;24370;-33
2022/10/30 01:11:50;;;;;;;17.50;10.30;;;;;;;9.44;100.00;99933.73;100688;1331;24378;-33
2022/10/30 01:14:17;;;;;;;20.50;11.10;;;;;;;9.43;100.00;99932.66;100737;1331;23112;-33
2022/10/30 01:16:47;;;;;;;22.10;12.00;;;;;;;9.40;100.00;99928.29;100768;1339;22883;-36
2022/10/30 01:19:20;;;;;;;17.00;10.90;;;;;;;9.40;100.00;99927.12;100598;1339;22510;-35
2022/10/30 01:21:49;;;;;;;21.80;13.40;;;;;;;9.41;100.00;99923.80;100831;1331;25310;-37
2022/10/30 01:24:22;;;;;;;25.00;13.20;;;;;;;9.44;100.00;99923.27;100786;1339;24378;-35
2022/10/30 01:26:50;;;;;;;23.40;13.20;;;;;;;9.46;100.00;99920.17;100736;1339;22766;-35
2022/10/30 01:29:18;;;;;;;25.10;14.50;;;;;;;9.49;100.00;99922.85;100759;1339;24300;-32
2022/10/30 01:31:49;;;;;;;26.20;14.90;;;;;;;9.51;100.00;99925.16;100812;1339;23214;-37
2022/10/30 01:34:18;;;;;;;22.50;14.00;;;;;;;9.49;100.00;99926.02;100743;1339;23106;-34
2022/10/30 01:36:50;;;;;;;24.10;13.00;;;;;;;9.50;100.00;99923.08;100746;1339;22509;-37
2022/10/30 01:39:19;;;;;;;22.50;14.40;;;;;;;9.51;100.00;99927.64;100792;1331;24374;-37
2022/10/30 01:41:44;;;;;;;31.20;14.80;;;;;;;9.48;100.00;99926.67;100759;1332;22782;-34
2022/10/30 01:44:15;;;;;;;31.30;16.50;;;;;;;9.45;100.00;99928.63;100761;1339;26480;-37
2022/10/30 01:46:46;;;;;;;30.20;17.10;;;;;;;9.50;100.00;99929.14;100637;1339;23329;-33
2022/10/30 01:49:18;;;;;;;30.60;16.30;;;;;;;9.52;100.00;99926.78;100794;1339;22507;-36
2022/10/30 01:51:49;;;;;;;24.30;13.30;;;;;;;9.53;100.00;99928.77;100779;1339;24373;-37
2022/10/30 01:54:20;;;;;;;21.40;12.90;;;;;;;9.54;100.00;99929.69;100650;1334;23552;-37
2022/10/30 01:56:50;;;;;;;23.30;13.10;;;;;;;9.55;100.00;99933.70;100794;1339;22883;-34
2022/10/30 01:59:23;;;;;;;26.80;16.50;;;;;;;9.59;100.00;99937.77;100801;1337;24370;-34
2022/10/30 02:01:48;;;;;;;18.70;11.80;;;;;;;9.65;100.00;99948.15;100812;1331;25640;-34
2022/10/30 02:04:14;;;;;;;30.40;14.50;;;;;;;9.66;100.00;99958.08;100826;1339;22816;-33
2022/10/30 02:06:39;;;;;;;31.00;13.90;;;;;;;9.68;100.00;99969.79;100743;1339;24652;-36
2022/10/30 02:09:05;;;;;;;30.90;16.60;;;;;;;9.68;100.00;99981.73;100681;1339;23919;-34
2022/10/30 02:11:31;;;;;;;20.70;11.80;;;;;;;9.68;100.00;99981.94;100802;1339;23109;-32
2022/10/30 02:13:57;;;;;;;26.80;15.50;;;;;;;9.72;100.00;99975.91;100764;1339;23257;-35
2022/10/30 02:16:22;;;;;;;25.30;13.50;;;;;;;9.77;100.00;99974.40;100712;1339;22872;-37
2022/10/30 02:18:48;;;;;;;30.10;15.60;;;;;;;9.74;100.00;99976.05;100715;1339;24355;-35
2022/10/30 02:21:13;;;;;;;26.70;14.90;;;;;;;9.71;100.00;99975.21;100770;1339;22880;-35
2022/10/30 02:23:39;;;;;;;36.30;16.50;;;;;;;9.68;100.00;99972.31;100634;1339;23146;-32
2022/10/30 02:26:05;;;;;;;26.30;13.50;;;;;;;9.67;100.00;99963.05;100769;1339;22885;-32
2022/10/30 02:28:30;;;;;;;22.60;13.60;;;;;;;9.68;100.00;99958.66;100807;1339;25080;-32
2022/10/30 02:30:56;;;;;;;25.90;15.20;;;;;;;9.72;100.00;99959.85;100706;1325;23116;-35
2022/10/30 02:33:23;;;;;;;28.80;15.30;;;;;;;9.73;100.00;99956.90;100690;1339;22893;-39
2022/10/30 02:35:50;;;;;;;18.60;10.70;;;;;;;9.72;100.00;99954.98;100511;1337;22708;-33
2022/10/30 02:38:15;;;;;;;25.40;15.20;;;;;;;9.70;100.00;99955.60;100717;1339;23086;-35
2022/10/30 02:40:41;;;;;;;21.80;12.00;;;;;;;9.64;100.00;99958.96;100742;1339;23118;-35
2022/10/30 02:43:07;;;;;;;24.10;13.70;;;;;;;9.64;100.00;99961.51;100618;1342;22844;-32
2022/10/30 02:45:32;;;;;;;27.40;14.60;;;;;;;9.61;100.00;99956.48;100722;1339;23053;-32
2022/10/30 02:47:59;;;;;;;19.40;10.70;;;;;;;9.55;100.00;99953.04;100683;1332;24437;-35
2022/10/30 02:50:25;;;;;;;17.20;12.30;;;;;;;9.51;100.00;99953.45;100663;1340;22745;-32
2022/10/30 02:52:51;;;;;;;21.90;12.90;;;;;;;9.49;100.00;99951.60;100692;1339;24291;-33
2022/10/30 02:55:17;;;;;;;47.70;15.70;;;;;;;9.47;100.00;99945.05;100716;1336;24830;-35
2022/10/30 02:57:43;;;;;;;27.00;14.00;;;;;;;9.45;100.00;99942.20;100779;1331;22747;-33
2022/10/30 03:00:09;;;;;;;22.00;11.30;;;;;;;9.42;100.00;99934.73;100811;1339;22757;-32
2022/10/30 03:02:35;;;;;;;35.00;19.20;;;;;;;9.40;100.00;99933.55;100648;1339;23010;-36
2022/10/30 03:05:02;;;;;;;23.60;13.20;;;;;;;9.42;100.00;99934.38;100636;1334;22745;-33
2022/10/30 03:07:27;;;;;;;28.50;14.50;;;;;;;9.43;100.00;99933.86;100779;1331;22722;-33
2022/10/30 03:09:53;;;;;;;21.60;13.50;;;;;;;9.40;100.00;99933.15;100677;1339;23249;-36
2022/10/30 03:12:20;;;;;;;17.20;11.10;;;;;;;9.39;100.00;99936.70;100783;1331;22766;-35
2022/10/30 03:14:45;;;;;;;30.40;16.00;;;;;;;9.39;100.00;99936.87;100769;1339;23064;-32
2022/10/30 03:17:11;;;;;;;23.30;11.90;;;;;;;9.36;100.00;99937.77;100684;1339;22984;-33
2022/10/30 03:19:36;;;;;;;32.00;14.70;;;;;;;9.32;100.00;99941.52;100714;1339;24298;-32
2022/10/30 03:22:02;;;;;;;35.10;17.40;;;;;;;9.31;100.00;99942.25;100685;1339;23123;-38
2022/10/30 03:24:27;;;;;;;36.20;19.20;;;;;;;9.30;100.00;99936.22;100718;1339;23089;-35
2022/10/30 03:26:53;;;;;;;27.90;15.50;;;;;;;9.30;100.00;99935.92;100723;1339;24549;-35
2022/10/30 03:29:18;;;;;;;27.90;17.00;;;;;;;9.29;100.00;99936.92;100742;1339;23221;-36
2022/10/30 03:31:44;;;;;;;36.40;15.20;;;;;;;9.26;100.00;99947.89;100676;1339;24762;-35
2022/10/30 03:34:09;;;;;;;27.20;16.60;;;;;;;9.20;100.00;99957.64;100705;1331;22890;-32
2022/10/30 03:36:35;;;;;;;29.20;17.10;;;;;;;9.13;100.00;99955.48;100813;1331;24414;-35
2022/10/30 03:39:01;;;;;;;24.30;14.60;;;;;;;9.08;100.00;99961.23;100851;1331;22502;-36
2022/10/30 03:41:27;;;;;;;25.90;15.70;;;;;;;9.04;100.00;99963.45;100838;1331;22519;-36
2022/10/30 03:43:52;;;;;;;23.90;14.40;;;;;;;9.01;100.00;99968.36;100812;1339;23121;-37
2022/10/30 03:46:18;;;;;;;19.90;11.10;;;;;;;8.97;100.00;99967.00;100716;1339;22996;-36
2022/10/30 03:48:47;;;;;;;27.00;14.90;;;;;;;8.93;100.00;99962.25;100681;1342;22875;-37
2022/10/30 03:51:13;;;;;;;16.20;8.40;;;;;;;8.97;100.00;99966.30;100824;1339;22523;-37
2022/10/30 03:53:38;;;;;;;20.30;10.40;;;;;;;8.94;100.00;99969.08;100700;1339;23093;-37
2022/10/30 03:56:05;;;;;;;18.90;11.20;;;;;;;8.91;100.00;99969.83;100763;1339;24423;-34
2022/10/30 03:58:31;;;;;;;13.00;9.50;;;;;;;8.90;100.00;99967.46;100659;1339;23098;-37
2022/10/30 04:01:00;;;;;;;22.60;12.70;;;;;;;8.86;100.00;99965.25;100757;1330;23324;-34
2022/10/30 04:03:26;;;;;;;22.80;10.40;;;;;;;8.85;100.00;99967.98;100782;1339;24379;-34
2022/10/30 04:05:52;;;;;;;36.00;16.20;;;;;;;8.84;100.00;99970.17;100744;1331;25930;-37
2022/10/30 04:08:17;;;;;;;17.10;10.50;;;;;;;8.81;100.00;99970.29;100761;1337;22598;-34
2022/10/30 04:10:44;;;;;;;28.10;15.40;;;;;;;8.78;100.00;99975.23;100780;1334;22761;-38
2022/10/30 04:13:09;;;;;;;28.60;16.00;;;;;;;8.76;100.00;99972.57;100725;1339;23103;-36
2022/10/30 04:15:35;;;;;;;28.60;17.00;;;;;;;8.74;100.00;99968.50;100727;1339;24481;-34
2022/10/30 04:18:01;;;;;;;30.10;13.80;;;;;;;8.72;100.00;99964.79;100654;1340;22761;-34
2022/10/30 04:20:27;;;;;;;25.70;14.30;;;;;;;8.72;100.00;99962.39;100756;1339;22748;-34
2022/10/30 04:22:55;;;;;;;38.20;19.20;;;;;;;8.71;100.00;99957.59;100703;1339;22870;-36
2022/10/30 04:25:21;;;;;;;16.70;9.80;;;;;;;8.70;100.00;99955.14;100740;1339;23087;-35
2022/10/30 04:27:48;;;;;;;29.00;16.10;;;;;;;8.67;100.00;99954.58;100779;1331;22894;-35
2022/10/30 04:30:14;;;;;;;23.60;12.90;;;;;;;8.63;100.00;99954.33;100760;1331;23096;-35
2022/10/30 04:32:45;;;;;;;21.50;10.20;;;;;;;8.60;100.00;99956.48;100148;1339;827879;-33
2022/10/30 04:35:11;;;;;;;36.80;17.10;;;;;;;8.59;100.00;99959.59;100712;1339;22754;-35
2022/10/30 04:37:36;;;;;;;40.50;19.60;;;;;;;8.59;100.00;99960.49;100804;1339;24379;-36
2022/10/30 04:40:02;;;;;;;35.90;16.50;;;;;;;8.61;100.00;99957.98;100751;1339;24667;-34
2022/10/30 04:42:28;;;;;;;34.50;18.90;;;;;;;8.60;100.00;99959.35;100852;1331;23044;-37
2022/10/30 04:44:54;;;;;;;39.10;20.10;;;;;;;8.59;100.00;99960.26;100616;1338;23219;-37
2022/10/30 04:47:19;;;;;;;30.60;16.10;;;;;;;8.56;100.00;99961.54;100722;1339;22748;-36
2022/10/30 04:49:47;;;;;;;40.30;16.00;;;;;;;8.50;100.00;99963.29;100737;1331;23241;-36
2022/10/30 04:52:12;;;;;;;24.60;12.10;;;;;;;8.45;100.00;99962.99;100752;1339;22747;-36
2022/10/30 04:54:38;;;;;;;30.50;17.10;;;;;;;8.40;100.00;99968.98;100739;1339;23220;-33
2022/10/30 04:57:04;;;;;;;18.40;10.50;;;;;;;8.38;100.00;99975.30;100757;1339;24391;-34
2022/10/30 04:59:30;;;;;;;27.80;15.90;;;;;;;8.35;100.00;99978.18;100713;1332;24382;-36
2022/10/30 05:01:55;;;;;;;26.90;14.00;;;;;;;8.33;100.00;99977.45;100751;1339;24351;-34
2022/10/30 05:04:21;;;;;;;21.00;12.40;;;;;;;8.31;100.00;99971.86;100729;1334;24490;-34
2022/10/30 05:06:47;;;;;;;29.40;16.30;;;;;;;8.31;100.00;99967.08;100756;1339;24383;-37
2022/10/30 05:09:12;;;;;;;17.30;10.40;;;;;;;8.30;100.00;99964.70;100747;1336;22845;-37
2022/10/30 05:11:38;;;;;;;35.50;17.00;;;;;;;8.30;100.00;99968.96;100836;1331;23397;-34
2022/10/30 05:14:03;;;;;;;37.70;18.90;;;;;;;8.29;100.00;99973.56;100751;1331;24491;-35
2022/10/30 05:16:29;;;;;;;22.70;13.40;;;;;;;8.27;100.00;99973.60;100857;1339;22799;-33
2022/10/30 05:18:55;;;;;;;27.90;16.50;;;;;;;8.26;100.00;99968.02;100712;1324;22776;-33
2022/10/30 05:21:20;;;;;;;36.20;18.90;;;;;;;8.26;100.00;99965.70;100640;1336;22748;-33
2022/10/30 05:23:46;;;;;;;33.60;16.90;;;;;;;8.24;100.00;99970.38;100657;1342;22500;-36
2022/10/30 05:26:11;;;;;;;31.50;18.90;;;;;;;8.21;100.00;99974.25;100727;1339;23212;-32
2022/10/30 05:28:37;;;;;;;33.90;18.20;;;;;;;8.19;100.00;99985.51;100788;1339;22981;-36
2022/10/30 05:31:02;;;;;;;41.70;18.40;;;;;;;8.16;100.00;99984.10;100747;1331;24343;-33
2022/10/30 05:33:28;;;;;;;35.90;14.40;;;;;;;8.14;100.00;99986.58;100724;1339;25004;-33
2022/10/30 05:35:53;;;;;;;33.40;16.10;;;;;;;8.12;100.00;99984.10;100713;1327;22872;-33
2022/10/30 05:38:19;;;;;;;33.20;16.70;;;;;;;8.11;100.00;99984.27;100699;1331;24329;-33
2022/10/30 05:40:45;;;;;;;30.60;18.10;;;;;;;8.11;100.00;99992.99;100767;1339;23104;-34
2022/10/30 05:43:10;;;;;;;33.20;16.00;;;;;;;8.10;100.00;99999.55;100773;1339;24255;-36
2022/10/30 05:45:36;;;;;;;37.30;17.60;;;;;;;8.10;100.00;100003.29;100718;1339;25178;-34
2022/10/30 05:48:03;;;;;;;31.40;18.30;;;;;;;8.10;100.00;100006.44;100881;1339;22748;-37
2022/10/30 05:50:28;;;;;;;38.20;18.60;;;;;;;8.11;100.00;100004.70;100763;1331;22521;-33
2022/10/30 05:52:55;;;;;;;16.70;12.50;;;;;;;8.15;100.00;100006.88;100763;1339;24476;-33
2022/10/30 05:55:21;;;;;;;19.80;11.10;;;;;;;8.17;100.00;100005.88;100795;1339;23120;-35
2022/10/30 05:57:47;;;;;;;23.80;11.90;;;;;;;8.22;100.00;100005.95;100755;1328;23333;-35
2022/10/30 06:00:13;;;;;;;16.60;9.80;;;;;;;8.26;100.00;99994.40;100754;1333;22774;-35
2022/10/30 06:02:39;;;;;;;31.20;15.70;;;;;;;8.29;100.00;99998.93;100803;1339;23225;-37
2022/10/30 06:05:05;;;;;;;28.20;14.00;;;;;;;8.32;100.00;100007.83;100700;1339;23220;-33
2022/10/30 06:07:30;;;;;;;24.70;14.80;;;;;;;8.36;100.00;100015.48;100745;1331;22780;-36
2022/10/30 06:09:56;;;;;;;36.20;16.50;;;;;;;8.39;100.00;100016.59;100663;1334;24276;-35
2022/10/30 06:12:21;;;;;;;20.00;11.50;;;;;;;8.45;100.00;100021.51;100691;1333;23085;-37
2022/10/30 06:14:46;;;;;;;17.40;9.20;;;;;;;8.49;100.00;100020.81;100775;1339;24366;-36
2022/10/30 06:17:12;;;;;;;18.20;12.30;;;;;;;8.55;100.00;100017.69;100798;1336;22709;-34
2022/10/30 06:19:38;;;;;;;17.90;11.90;;;;;;;8.61;100.00;100004.50;100722;1334;24415;-36
2022/10/30 06:22:03;;;;;;;27.60;14.00;;;;;;;8.68;100.00;99996.08;100757;1339;25652;-34
2022/10/30 06:24:28;;;;;;;39.50;19.10;;;;;;;8.76;100.00;99989.45;100732;1339;22890;-36
2022/10/30 06:26:54;;;;;;;31.90;15.80;;;;;;;8.86;100.00;99998.41;100689;1339;24436;-36
2022/10/30 06:29:19;;;;;;;32.30;16.40;;;;;;;8.90;100.00;100005.02;100751;1339;23227;-33
2022/10/30 06:31:45;;;;;;;33.70;18.10;;;;;;;8.99;100.00;100014.21;100630;1333;23111;-36
2022/10/30 06:34:10;;;;;;;36.30;17.40;;;;;;;9.08;100.00;100017.14;100658;1334;24399;-34
2022/10/30 06:36:36;;;;;;;32.20;17.20;;;;;;;9.22;100.00;100022.09;100785;1334;22536;-35
2022/10/30 06:39:01;;;;;;;30.50;16.00;;;;;;;9.30;100.00;100020.45;100717;1339;22895;-37
2022/10/30 06:41:27;;;;;;;36.40;20.00;;;;;;;9.40;100.00;100026.64;100767;1331;23223;-37
2022/10/30 06:43:52;;;;;;;38.50;19.10;;;;;;;9.45;100.00;100025.52;100740;1331;25488;-37
2022/10/30 06:46:18;;;;;;;32.90;15.50;;;;;;;9.54;100.00;100029.16;100482;1339;25104;-37
2022/10/30 06:48:43;;;;;;;29.30;16.00;;;;;;;9.65;100.00;100026.40;100812;1331;23120;-33
2022/10/30 06:51:09;;;;;;;31.00;16.60;;;;;;;9.79;100.00;100028.77;100759;1339;22997;-36
2022/10/30 06:53:34;;;;;;;34.20;16.50;;;;;;;9.87;100.00;100024.85;100770;1338;23088;-37
2022/10/30 06:56:01;;;;;;;41.40;19.00;;;;;;;9.94;100.00;100021.11;100819;1334;24354;-35
2022/10/30 06:58:28;;;;;;;30.10;16.20;;;;;;;10.04;100.00;100022.52;100872;1339;24552;-34
2022/10/30 07:00:54;;;;;;;29.80;15.80;;;;;;;10.11;100.00;100014.16;100650;1339;22748;-35
2022/10/30 07:03:20;;;;;;;31.60;13.50;;;;;;;10.18;100.00;100017.46;100778;1331;22814;-35
2022/10/30 07:05:46;;;;;;;41.40;19.90;;;;;;;10.26;100.00;100018.34;100743;1338;22760;-37
2022/10/30 07:08:11;;;;;;;38.90;17.90;;;;;;;10.34;100.00;100022.98;100752;1339;24302;-35
2022/10/30 07:10:37;;;;;;;28.80;13.50;;;;;;;10.40;100.00;100024.75;100676;1334;23112;-35
2022/10/30 07:13:03;;;;;;;23.00;12.70;;;;;;;10.50;100.00;100023.59;100662;1339;22460;-35
2022/10/30 07:15:29;;;;;;;31.40;13.00;;;;;;;10.60;100.00;100024.58;100740;1339;23112;-38
2022/10/30 07:17:56;;;;;;;34.40;16.20;;;;;;;10.72;100.00;100022.96;100825;1339;22745;-37
2022/10/30 07:20:23;;;;;;;26.10;14.20;;;;;;;10.83;100.00;100025.02;100745;1330;23112;-35
2022/10/30 07:22:48;;;;;;;25.20;14.90;;;;;;;10.97;100.00;100027.19;100725;1339;25607;-38
2022/10/30 07:25:14;;;;;;;23.40;13.10;;;;;;;11.08;100.00;100027.65;100688;1334;22945;-32
2022/10/30 07:27:44;;;;;;;28.10;15.10;;;;;;;11.18;100.00;100017.83;100678;1335;22875;-33
2022/10/30 07:30:11;;;;;;;26.60;12.60;;;;;;;11.28;100.00;100006.21;100714;1331;24378;-35
2022/10/30 07:32:37;;;;;;;25.00;10.70;;;;;;;11.37;100.00;99999.34;100732;1339;23233;-33
2022/10/30 07:35:03;;;;;;;26.90;13.80;;;;;;;11.55;100.00;100005.45;100712;1339;22722;-35
2022/10/30 07:37:29;;;;;;;35.50;18.40;;;;;;;11.73;100.00;100014.17;100703;1331;23166;-33
2022/10/30 07:39:54;;;;;;;20.00;12.00;;;;;;;12.00;100.00;100013.87;100759;1331;22884;-35
2022/10/30 07:42:20;;;;;;;22.90;13.40;;;;;;;12.34;100.00;100019.88;100768;1339;22869;-37
2022/10/30 07:44:45;;;;;;;20.90;10.20;;;;;;;12.67;100.00;100017.56;100666;1339;23096;-37
2022/10/30 07:47:11;;;;;;;16.70;9.80;;;;;;;12.99;100.00;99993.74;100647;1334;24826;-37
2022/10/30 07:49:36;;;;;;;20.10;10.40;;;;;;;13.34;100.00;99995.54;100880;1339;23200;-40
2022/10/30 07:52:02;;;;;;;21.30;10.60;;;;;;;13.63;100.00;99986.80;100680;1339;22861;-33
2022/10/30 07:54:28;;;;;;;20.20;10.30;;;;;;;13.98;100.00;99979.04;100755;1339;22805;-35
2022/10/30 07:56:53;;;;;;;15.80;9.70;;;;;;;14.10;100.00;99988.05;100775;1339;24312;-34
2022/10/30 07:59:19;;;;;;;23.70;8.30;;;;;;;14.16;100.00;99974.52;100654;1334;24491;-35
2022/10/30 08:01:45;;;;;;;13.00;9.20;;;;;;;14.07;100.00;99948.57;100727;1339;23220;-37
2022/10/30 08:04:12;;;;;;;13.40;8.20;;;;;;;14.11;100.00;99922.59;100777;1339;23106;-37
2022/10/30 08:06:38;;;;;;;17.40;7.10;;;;;;;14.08;100.00;99916.20;100726;1331;24581;-35
2022/10/30 08:09:04;;;;;;;12.10;7.40;;;;;;;14.08;100.00;99900.66;100778;1339;22745;-34
2022/10/30 08:11:30;;;;;;;10.10;7.10;;;;;;;14.13;100.00;99880.50;100684;1340;22862;-35
2022/10/30 08:13:55;;;;;;;14.50;7.70;;;;;;;14.34;100.00;99902.11;100803;1339;22974;-37
2022/10/30 08:16:21;;;;;;;13.20;6.90;;;;;;;14.61;100.00;99879.02;100673;1334;23223;-35
2022/10/30 08:18:46;;;;;;;12.70;7.60;;;;;;;14.85;100.00;99866.94;100652;1339;22845;-37
2022/10/30 08:21:12;;;;;;;12.70;9.20;;;;;;;14.95;100.00;99857.71;100751;1339;23557;-35
2022/10/30 08:23:37;;;;;;;20.50;8.60;;;;;;;15.06;100.00;99860.84;100741;1339;25136;-35
2022/10/30 08:26:04;;;;;;;10.50;6.30;;;;;;;15.20;100.00;99861.59;100722;1339;26599;-35
2022/10/30 08:28:30;;;;;;;9.00;6.20;;;;;;;15.55;100.00;99872.91;100735;1333;23112;-35
2022/10/30 08:30:57;;;;;;;14.70;7.40;;;;;;;15.88;100.00;99872.98;100864;1339;23097;-35
2022/10/30 08:33:22;;;;;;;12.80;5.10;;;;;;;16.10;100.00;99861.77;100679;1334;23110;-35
2022/10/30 08:35:49;;;;;;;11.70;6.60;;;;;;;16.11;100.00;99863.66;100748;1339;23206;-36
2022/10/30 08:38:15;;;;;;;11.30;6.60;;;;;;;16.40;100.00;99858.73;100795;1334;23481;-37
2022/10/30 08:40:41;;;;;;;12.70;7.00;;;;;;;16.55;100.00;99856.42;100775;1339;22513;-34
2022/10/30 08:43:07;;;;;;;10.80;7.40;;;;;;;16.70;100.00;99846.35;100745;1339;23132;-36
2022/10/30 08:45:32;;;;;;;17.30;7.20;;;;;;;16.92;100.00;99849.95;100677;1339;23243;-35
2022/10/30 08:47:59;;;;;;;15.80;7.30;;;;;;;17.14;100.00;99847.55;100740;1331;22642;-36
2022/10/30 08:50:25;;;;;;;10.30;7.30;;;;;;;17.25;100.00;99843.85;100810;1339;23192;-37
2022/10/30 08:52:50;;;;;;;11.20;5.70;;;;;;;17.35;100.00;99848.98;100714;1331;23017;-36
2022/10/30 08:55:16;;;;;;;11.40;5.00;;;;;;;17.65;100.00;99842.67;100749;1339;22760;-38
2022/10/30 08:57:41;;;;;;;17.70;5.30;;;;;;;17.91;100.00;99835.47;100793;1339;22745;-35
2022/10/30 09:00:08;;;;;;;9.20;7.30;;;;;;;18.04;99.64;99827.29;100741;1339;24374;-39
2022/10/30 09:02:34;;;;;;;9.60;5.00;;;;;;;18.20;98.59;99821.77;100809;1331;23222;-37
2022/10/30 09:04:59;;;;;;;12.80;6.20;;;;;;;18.21;99.06;99821.92;100772;1331;22492;-37
2022/10/30 09:07:25;;;;;;;10.20;4.50;;;;;;;18.57;99.87;99823.27;100731;1339;22848;-36
2022/10/30 09:09:50;;;;;;;7.50;5.40;;;;;;;18.88;96.24;99820.48;100762;1331;22878;-37
2022/10/30 09:12:16;;;;;;;14.30;5.30;;;;;;;19.20;95.02;99812.30;100773;1331;24399;-38
2022/10/30 09:14:41;;;;;;;9.80;4.50;;;;;;;19.29;93.85;99806.82;100727;1339;24334;-36
2022/10/30 09:17:07;;;;;;;6.20;5.00;;;;;;;19.53;92.37;99802.20;100715;1339;22523;-37
2022/10/30 09:19:32;;;;;;;8.90;6.00;;;;;;;19.60;89.45;99808.13;100633;1333;23222;-41
2022/10/30 09:21:58;;;;;;;11.00;4.40;;;;;;;19.77;87.91;99811.23;100642;1339;22804;-34
2022/10/30 09:24:23;;;;;;;8.70;4.30;;;;;;;20.07;87.60;99806.25;100655;1339;22889;-36
2022/10/30 09:26:49;;;;;;;4.90;3.00;;;;;;;20.15;79.85;99808.85;100761;1333;22754;-38
2022/10/30 09:29:14;;;;;;;13.30;4.70;;;;;;;19.75;79.98;99809.23;100804;1339;22745;-38
2022/10/30 09:31:40;;;;;;;9.20;3.70;;;;;;;19.72;79.76;99806.83;100749;1332;22850;-37
2022/10/30 09:34:05;;;;;;;7.40;5.20;;;;;;;19.73;80.29;99805.70;100711;1339;25371;-35
2022/10/30 09:36:31;;;;;;;7.10;5.60;;;;;;;19.79;79.52;99808.93;100759;1339;24871;-37
2022/10/30 09:38:58;;;;;;;17.30;4.90;;;;;;;19.94;80.00;99808.52;100734;1331;23229;-38
2022/10/30 09:41:31;;;;;;;5.90;4.20;;;;;;;20.27;76.00;99806.83;100744;1339;24404;-38
2022/10/30 09:44:06;;;;;;;6.70;5.50;;;;;;;20.35;75.71;99807.23;100835;1339;22623;-38
2022/10/30 09:46:38;;;;;;;6.30;4.60;;;;;;;20.22;75.77;99804.90;100708;1339;23122;-37
2022/10/30 09:49:06;;;;;;;14.60;4.20;;;;;;;20.20;77.19;99800.20;100707;1342;22506;-36
2022/10/30 09:51:35;;;;;;;6.80;4.60;;;;;;;20.39;78.48;99806.47;100754;1339;23351;-36
2022/10/30 09:54:08;;;;;;;11.20;4.80;;;;;;;20.53;78.09;99800.30;100768;1339;22984;-36
2022/10/30 09:56:39;;;;;;;6.50;3.50;;;;;;;20.71;74.54;99799.44;100717;1339;24388;-37
2022/10/30 09:59:09;;;;;;;5.50;3.80;;;;;;;20.56;73.79;99796.86;100707;1339;22508;-35
2022/10/30 10:01:39;;;;;;;7.80;3.20;;;;;;;20.51;73.26;99796.88;100841;1335;24304;-35
2022/10/30 10:04:15;;;;;;;12.30;6.70;;;;;;;20.45;75.21;99801.31;100724;1339;22627;-34
2022/10/30 10:06:43;;;;;;;6.10;4.10;;;;;;;20.87;71.80;99803.91;100796;1339;25401;-35
2022/10/30 10:09:14;;;;;;;10.80;3.40;;;;;;;20.93;72.68;99802.89;100802;1339;24869;-37
2022/10/30 10:11:41;;;;;;;18.10;4.30;;;;;;;21.22;71.36;99802.73;100754;1339;22500;-37
2022/10/30 10:14:10;;;;;;;7.80;3.40;;;;;;;21.37;69.52;99800.73;100761;1339;22800;-36
2022/10/30 10:16:38;;;;;;;11.60;4.50;;;;;;;21.51;70.33;99796.02;100651;1334;24379;-36
2022/10/30 10:19:09;;;;;;;6.20;3.90;;;;;;;21.86;68.44;99791.49;100613;1334;23103;-37
2022/10/30 10:21:37;;;;;;;10.10;5.00;;;;;;;21.96;66.38;99788.24;100788;1339;25551;-36
2022/10/30 10:24:03;;;;;;;14.00;3.60;;;;;;;22.17;66.78;99781.02;100773;1332;22890;-36
2022/10/30 10:26:30;;;;;;;6.10;5.00;;;;;;;22.58;65.51;99782.86;100760;1323;22743;-38
2022/10/30 10:29:02;;;;;;;5.50;3.60;;;;;;;22.58;64.23;99787.77;100755;1339;22749;-38
2022/10/30 10:31:32;;;;;;;5.00;3.80;;;;;;;22.66;62.06;99787.12;100845;1339;22499;-38
2022/10/30 10:34:04;;;;;;;8.40;5.30;;;;;;;22.51;61.90;99789.27;100722;1331;22757;-36
2022/10/30 10:36:38;;;;;;;6.90;4.70;;;;;;;22.60;63.58;99787.30;100761;1339;24448;-36
2022/10/30 10:39:10;;;;;;;8.00;4.60;;;;;;;22.92;62.09;99789.05;100741;1339;22550;-36
2022/10/30 10:41:39;;;;;;;10.90;4.60;;;;;;;23.30;60.58;99781.10;100639;1339;23090;-37
2022/10/30 10:44:12;;;;;;;2.80;2.60;;;;;;;23.35;60.71;99789.29;100773;1339;22725;-37
2022/10/30 10:46:38;;;;;;;5.20;3.80;;;;;;;23.56;58.81;99786.36;100727;1339;24482;-37
2022/10/30 10:49:08;;;;;;;7.70;5.20;;;;;;;23.83;57.60;99784.91;100709;1337;22748;-35
2022/10/30 10:51:37;;;;;;;11.80;6.40;;;;;;;23.89;57.36;99779.15;100709;1340;22747;-35
2022/10/30 10:54:05;;;;;;;5.20;3.50;;;;;;;24.09;57.69;99776.60;100737;1329;24350;-35
2022/10/30 10:56:33;;;;;;;11.40;4.20;;;;;;;24.38;56.36;99767.61;100912;1331;22893;-35
2022/10/30 10:59:03;;;;;;;15.10;4.90;;;;;;;24.73;54.43;99761.46;100820;1324;23062;-35
2022/10/30 11:01:36;;;;;;;9.80;3.50;;;;;;;24.77;54.05;99754.30;100708;1335;23191;-39
2022/10/30 11:04:04;;;;;;;1.00;0.90;;;;;;;25.00;52.45;99746.73;100776;1336;22761;-37
2022/10/30 11:06:34;;;;;;;6.20;4.20;;;;;;;24.90;50.52;99742.93;100825;1331;24350;-36